Time;durP1;ratioP1;P1;durP2;ratioP2;P2;SDS_P1;SDS_P2;PMS_P1;PMS_P2;Temp;Humidity;BMP_temperature;BMP_pressure;BME280_temperature;BME280_humidity;BME280_pressure;Samples;Min_cycle;Max_cycle;Signal;HPM_P1;HPM_P2
2022/11/16 00:05:01;;;;;;;66.45;38.08;;;;;;;13.47;98.91;98349.27;4196194;83;28452;-78
2022/11/16 00:11:07;;;;;;;77.10;43.95;;;;;;;13.52;98.96;98345.24;4185797;83;28580;-78
2022/11/16 00:17:08;;;;;;;80.67;45.17;;;;;;;13.82;96.76;98346.36;4169109;83;28538;-77
2022/11/16 00:23:09;;;;;;;82.12;43.00;;;;;;;13.61;97.35;98325.27;4223067;82;41533;-77
2022/11/16 00:29:17;;;;;;;79.47;43.52;;;;;;;13.59;98.16;98323.38;4267962;82;28546;-79
2022/11/16 00:35:18;;;;;;;76.25;41.90;;;;;;;13.71;97.39;98323.13;4268806;82;28502;-78
2022/11/16 00:41:20;;;;;;;80.50;45.48;;;;;;;13.58;98.16;98325.80;4249100;82;28518;-78
2022/11/16 00:47:21;;;;;;;78.87;45.55;;;;;;;13.50;99.23;98331.20;4265904;82;28761;-78
2022/11/16 00:53:22;;;;;;;83.82;45.98;;;;;;;13.69;98.27;98327.44;4276467;81;28485;-78
2022/11/16 00:59:24;;;;;;;79.60;44.77;;;;;;;13.77;97.98;98327.43;4264711;81;28513;-78
2022/11/16 01:05:27;;;;;;;73.30;42.25;;;;;;;13.98;96.18;98328.26;4216679;82;28535;-78
2022/11/16 01:17:49;;;;;;;89.32;50.12;;;;;;;13.79;97.02;98315.28;4208468;82;28533;-79
2022/11/16 01:23:51;;;;;;;90.38;50.08;;;;;;;13.97;96.09;98319.88;4192795;83;28540;-77
2022/11/16 01:29:52;;;;;;;91.95;50.33;;;;;;;13.97;96.15;98310.95;4191345;82;28476;-79
2022/11/16 01:35:54;;;;;;;90.40;49.77;;;;;;;13.70;97.95;98307.44;4218632;82;28467;-79
2022/11/16 01:41:57;;;;;;;91.17;50.98;;;;;;;13.78;97.79;98297.98;4265067;82;28561;-78
2022/11/16 01:47:59;;;;;;;92.33;51.20;;;;;;;13.85;97.30;98279.61;4213862;82;28898;-79
2022/11/16 01:54:06;;;;;;;82.97;47.48;;;;;;;14.01;96.86;98279.61;4203965;83;28525;-78
2022/11/16 02:00:31;;;;;;;85.60;48.85;;;;;;;13.82;98.13;98272.59;4152299;83;28582;-76
2022/11/16 02:06:59;;;;;;;90.55;50.05;;;;;;;13.85;98.25;98266.11;4274489;82;28511;-78
2022/11/16 02:13:30;;;;;;;91.28;51.20;;;;;;;13.61;99.66;98256.39;4257166;82;28557;-77
2022/11/16 02:20:11;;;;;;;99.22;54.93;;;;;;;13.53;100.00;98249.64;4206660;83;28509;-78
2022/11/16 02:26:45;;;;;;;91.47;51.20;;;;;;;13.72;99.21;98227.50;4212440;83;28508;-77
2022/11/16 02:33:00;;;;;;;98.65;54.08;;;;;;;13.81;98.65;98228.57;4257165;82;28554;-78
2022/11/16 02:39:06;;;;;;;93.47;54.03;;;;;;;13.94;98.14;98229.88;4241342;82;28540;-78
2022/11/16 02:45:11;;;;;;;88.90;53.85;;;;;;;13.85;98.08;98226.11;4287484;82;28534;-78
2022/11/16 02:51:16;;;;;;;90.90;51.77;;;;;;;13.79;98.51;98215.85;4287434;82;28589;-77
2022/11/16 02:57:36;;;;;;;95.42;52.20;;;;;;;13.58;100.00;98212.38;4268378;82;28538;-77
2022/11/16 03:03:45;;;;;;;94.55;53.58;;;;;;;13.69;99.98;98196.95;4240303;82;28554;-79
2022/11/16 03:09:49;;;;;;;100.82;53.92;;;;;;;13.84;99.10;98194.24;4259425;82;28510;-79
2022/11/16 03:15:54;;;;;;;90.92;52.65;;;;;;;14.01;97.87;98191.23;4264745;82;28532;-78
2022/11/16 03:22:15;;;;;;;;;;;;;;;14.01;97.04;98191.23;4270834;82;28524;-78
2022/11/16 03:28:34;;;;;;;90.47;51.15;;;;;;;13.88;97.68;98196.66;4260040;82;20614;-77
2022/11/16 03:34:38;;;;;;;88.05;51.15;;;;;;;13.88;98.09;98191.25;4259107;81;28535;-79
2022/11/16 03:40:43;;;;;;;94.70;51.05;;;;;;;14.13;96.90;98180.12;4258567;82;28520;-79
2022/11/16 03:46:45;;;;;;;89.75;50.83;;;;;;;14.13;96.76;98177.42;4257135;82;28483;-77
2022/11/16 03:52:46;;;;;;;92.90;51.58;;;;;;;13.99;98.19;98170.95;4258605;82;28522;-77
2022/11/16 03:58:48;;;;;;;91.15;52.25;;;;;;;13.99;97.79;98170.95;4285419;82;28516;-77
2022/11/16 04:24:12;;;;;;;90.10;50.23;;;;;;;13.50;100.00;98162.44;4211014;83;28539;-77
2022/11/16 04:30:14;;;;;;;91.42;50.35;;;;;;;13.49;100.00;98154.06;4182687;83;28511;-76
2022/11/16 04:42:37;;;;;;;87.78;50.25;;;;;;;13.57;100.00;98152.70;4109191;84;28527;-77
2022/11/16 04:48:38;;;;;;;89.17;49.65;;;;;;;13.62;100.00;98144.05;4203417;83;28572;-75
2022/11/16 04:54:40;;;;;;;86.75;49.15;;;;;;;13.63;100.00;98139.44;4093081;84;28541;-76
2022/11/16 05:00:42;;;;;;;86.87;49.48;;;;;;;13.61;100.00;98143.78;4182829;83;28551;-75
2022/11/16 05:06:44;;;;;;;83.25;46.92;;;;;;;13.64;100.00;98134.30;4129683;84;28520;-75
2022/11/16 05:12:46;;;;;;;86.50;48.13;;;;;;;13.41;100.00;98131.63;4139382;84;28532;-76
2022/11/16 05:20:59;;;;;;;83.92;48.15;;;;;;;13.49;100.00;98130.56;4173119;83;28553;-76
2022/11/16 05:24:52;;;;;;;91.02;49.30;;;;;;;13.48;100.00;98123.54;4190077;83;28527;-76
2022/11/16 05:30:53;;;;;;;90.85;48.73;;;;;;;13.61;100.00;98112.72;4106810;85;28557;-75
2022/11/16 05:36:57;;;;;;;89.45;50.05;;;;;;;13.53;100.00;98116.77;4174113;83;28553;-78
2022/11/16 05:43:02;;;;;;;89.17;50.20;;;;;;;13.69;100.00;98114.58;4097497;85;28533;-81
2022/11/16 05:49:06;;;;;;;88.92;49.95;;;;;;;13.48;100.00;98121.37;4101580;85;28557;-79
2022/11/16 05:55:09;;;;;;;85.03;49.03;;;;;;;13.51;100.00;98114.89;4113610;85;28556;-80
2022/11/16 06:01:12;;;;;;;89.90;50.20;;;;;;;13.98;100.00;98112.59;4174098;84;28975;-78
2022/11/16 06:07:13;;;;;;;88.00;49.35;;;;;;;14.02;100.00;98103.66;4155955;84;28565;-80
2022/11/16 06:13:15;;;;;;;86.75;49.80;;;;;;;13.77;100.00;98099.16;4149375;84;28516;-83
2022/11/16 06:19:20;;;;;;;91.87;51.05;;;;;;;13.73;100.00;98101.59;4158960;85;28484;-83
2022/11/16 06:25:24;;;;;;;82.82;49.30;;;;;;;13.78;100.00;98102.13;4168797;83;28528;-88
2022/11/16 06:31:25;;;;;;;82.80;49.77;;;;;;;13.73;100.00;98103.50;4171257;84;28476;-89
2022/11/16 06:37:28;;;;;;;81.05;48.92;;;;;;;13.91;100.00;98098.86;4074914;85;28632;-88
2022/11/16 06:43:30;;;;;;;78.33;47.88;;;;;;;13.87;100.00;98093.72;4158515;84;28482;-89
2022/11/16 06:49:32;;;;;;;77.78;45.65;;;;;;;13.98;100.00;98090.45;4169051;84;28479;-92
2022/11/16 06:55:35;;;;;;;76.65;45.33;;;;;;;13.97;100.00;98073.15;4166681;84;28514;-94
2022/11/16 07:01:37;;;;;;;70.05;42.70;;;;;;;13.81;100.00;98070.53;4149792;83;28527;-88
2022/11/16 07:07:40;;;;;;;67.50;41.00;;;;;;;14.07;100.00;98063.64;4210832;83;28592;-87
2022/11/16 07:13:42;;;;;;;72.32;42.62;;;;;;;14.21;100.00;98065.20;4284072;82;28639;-89
2022/11/16 07:19:44;;;;;;;68.97;40.40;;;;;;;14.36;100.00;98053.48;4267054;82;28528;-83
2022/11/16 07:25:46;;;;;;;65.83;38.45;;;;;;;14.33;100.00;98051.34;4266628;82;28550;-90
2022/11/16 07:31:50;;;;;;;83.58;44.40;;;;;;;13.58;100.00;98054.39;4262089;82;28589;-81
2022/11/16 07:37:59;;;;;;;89.37;45.95;;;;;;;13.30;100.00;98047.95;4270851;82;28587;-81
2022/11/16 07:44:00;;;;;;;88.58;44.48;;;;;;;13.13;100.00;98049.61;4185777;83;28549;-82
2022/11/16 07:50:06;;;;;;;85.70;43.45;;;;;;;12.82;100.00;98050.98;4258960;82;28569;-82
2022/11/16 07:56:10;;;;;;;76.65;39.78;;;;;;;13.17;100.00;98053.91;4256226;82;28574;-83
2022/11/16 08:02:13;;;;;;;69.85;36.05;;;;;;;13.09;100.00;98057.97;4257570;82;28574;-82
2022/11/16 08:08:15;;;;;;;65.83;35.88;;;;;;;12.55;100.00;98063.66;4244111;82;28664;-83
2022/11/16 08:14:18;;;;;;;59.08;31.87;;;;;;;12.33;100.00;98076.53;4255439;82;28540;-84
2022/11/16 08:20:20;;;;;;;55.03;29.10;;;;;;;12.68;100.00;98076.33;4257651;82;28582;-83
2022/11/16 08:26:22;;;;;;;51.58;27.67;;;;;;;12.25;100.00;98080.56;4252532;82;28604;-83
2022/11/16 08:32:28;;;;;;;53.17;28.20;;;;;;;12.71;100.00;98074.99;4248725;82;28575;-83
2022/11/16 08:38:28;;;;;;;59.85;31.35;;;;;;;12.54;100.00;98072.00;4237915;82;28535;-84
2022/11/16 08:44:30;;;;;;;54.93;29.32;;;;;;;12.37;100.00;98068.20;4268938;82;28552;-81
2022/11/16 08:50:32;;;;;;;53.10;25.65;;;;;;;12.05;100.00;98063.81;4270238;82;28561;-83
2022/11/16 08:56:34;;;;;;;43.45;22.87;;;;;;;11.95;100.00;98076.14;4263888;82;28584;-83
2022/11/16 09:02:36;;;;;;;39.27;21.15;;;;;;;12.08;100.00;98079.44;4277426;81;28496;-91
2022/11/16 09:08:39;;;;;;;33.80;17.87;;;;;;;11.94;100.00;98078.56;4290912;81;28558;-86
2022/11/16 09:14:43;;;;;;;30.75;15.50;;;;;;;12.43;100.00;98075.20;4289382;81;28558;-84
2022/11/16 09:20:44;;;;;;;25.27;14.25;;;;;;;12.44;100.00;98066.03;4194328;83;28541;-82
2022/11/16 09:26:46;;;;;;;21.75;12.47;;;;;;;12.62;100.00;98055.82;4206330;83;28541;-85
2022/11/16 09:32:47;;;;;;;17.15;10.53;;;;;;;13.14;100.00;98043.66;4118450;85;28564;-86
2022/11/16 09:38:49;;;;;;;16.75;9.08;;;;;;;13.25;100.00;98037.98;4115824;85;28653;-84
2022/11/16 09:45:31;;;;;;;15.10;9.13;;;;;;;12.71;100.00;98051.52;4111087;85;28591;-83
2022/11/16 09:51:35;;;;;;;14.33;8.50;;;;;;;12.85;100.00;98044.22;4120708;85;28584;-84
2022/11/16 09:57:39;;;;;;;11.55;7.00;;;;;;;12.83;99.53;98025.07;4189396;83;28560;-87
2022/11/16 10:03:43;;;;;;;11.48;7.15;;;;;;;12.86;97.15;98020.20;4126076;84;28551;-83
2022/11/16 10:09:46;;;;;;;9.03;6.00;;;;;;;12.32;99.46;98015.62;4188934;83;28600;-84
2022/11/16 10:16:13;;;;;;;9.08;5.78;;;;;;;12.81;97.14;97996.78;4180505;83;28581;-86
2022/11/16 10:22:36;;;;;;;10.68;6.80;;;;;;;12.58;96.71;97994.09;4178225;83;28586;-84
2022/11/16 10:28:58;;;;;;;12.18;7.28;;;;;;;12.52;96.33;97977.89;4181403;83;28562;-85
2022/11/16 10:35:23;;;;;;;10.93;7.20;;;;;;;12.62;96.73;97973.58;4181025;83;28517;-84
2022/11/16 10:41:38;;;;;;;10.72;7.12;;;;;;;12.62;96.85;97974.92;4033990;86;28558;-86
2022/11/16 10:48:02;;;;;;;11.80;6.45;;;;;;;12.95;96.50;97969.50;4163353;83;28595;-84
2022/11/16 10:54:13;;;;;;;11.40;6.80;;;;;;;12.77;93.84;97978.16;4162629;83;28579;-86
2022/11/16 11:00:20;;;;;;;10.58;6.28;;;;;;;12.40;96.92;97973.31;4194947;83;28559;-86
2022/11/16 11:06:25;;;;;;;11.38;6.55;;;;;;;12.59;96.65;97963.34;4175648;83;28512;-86
2022/11/16 11:12:38;;;;;;;12.13;6.90;;;;;;;12.73;96.12;97967.65;4141714;84;28694;-86
2022/11/16 11:18:40;;;;;;;11.43;7.17;;;;;;;12.77;96.41;97962.79;4095963;85;28512;-85
2022/11/16 11:24:47;;;;;;;12.37;7.08;;;;;;;12.80;96.18;97960.89;4125486;84;28522;-86
2022/11/16 11:31:24;;;;;;;10.30;6.65;;;;;;;12.95;93.95;97962.75;4120056;85;28569;-76
2022/11/16 11:37:34;;;;;;;11.57;7.33;;;;;;;12.46;96.00;97962.81;4112947;85;28550;-79
2022/11/16 11:43:37;;;;;;;11.80;8.03;;;;;;;12.60;96.17;97959.56;4116009;85;28656;-77
2022/11/16 11:49:48;;;;;;;13.05;7.35;;;;;;;12.55;96.19;97952.29;4175055;83;28681;-78
2022/11/16 11:55:50;;;;;;;14.07;6.90;;;;;;;11.96;99.18;97944.95;4133206;84;28630;-78
2022/11/16 12:02:38;;;;;;;12.20;7.17;;;;;;;11.83;100.00;97942.25;4151033;84;28527;-78
2022/11/16 12:09:13;;;;;;;9.60;6.12;;;;;;;12.07;100.00;97947.95;4163499;84;28583;-79
2022/11/16 12:15:32;;;;;;;6.97;4.92;;;;;;;11.90;100.00;97944.69;4169050;84;28551;-78
2022/11/16 12:22:28;;;;;;;8.43;5.03;;;;;;;12.04;100.00;97935.02;4169428;84;28598;-76
2022/11/16 12:29:04;;;;;;;8.65;5.08;;;;;;;12.56;97.72;97933.68;4151858;84;28618;-76
2022/11/16 12:35:19;;;;;;;8.70;5.37;;;;;;;12.49;99.07;97924.52;4142711;84;28547;-75
2022/11/16 12:41:38;;;;;;;9.93;7.13;;;;;;;12.54;97.80;97926.41;4185475;83;33749;-74
2022/11/16 12:47:54;;;;;;;9.98;6.90;;;;;;;12.93;96.68;97924.98;4176150;84;28544;-76
2022/11/16 12:54:19;;;;;;;7.72;4.70;;;;;;;12.18;99.47;97923.71;4193893;84;28820;-75
2022/11/16 13:00:20;;;;;;;4.70;3.37;;;;;;;11.49;100.00;97928.70;4097128;84;28573;-75
2022/11/16 13:06:33;;;;;;;3.90;2.58;;;;;;;11.44;100.00;97924.62;4111643;84;28612;-75
2022/11/16 13:12:37;;;;;;;4.78;2.60;;;;;;;11.06;100.00;97926.09;4099397;85;28479;-74
2022/11/16 13:18:41;;;;;;;;;;;;;;;11.46;100.00;97922.50;4068110;85;28600;-75
2022/11/16 13:24:57;;;;;;;3.30;2.05;;;;;;;10.69;100.00;97921.05;4072767;85;20240;-76
2022/11/16 13:31:30;;;;;;;4.25;2.25;;;;;;;10.88;100.00;97910.70;4078372;85;28594;-76
2022/11/16 13:37:41;;;;;;;3.10;2.17;;;;;;;10.97;100.00;97915.55;4075670;85;28491;-75
2022/11/16 13:43:50;;;;;;;4.30;2.87;;;;;;;11.58;100.00;97914.17;4166984;84;28543;-76
2022/11/16 13:50:02;;;;;;;5.22;3.33;;;;;;;11.37;100.00;97922.19;4167108;84;28520;-76
2022/11/16 13:56:07;;;;;;;4.67;3.33;;;;;;;11.19;100.00;97918.61;4148973;84;28591;-76
2022/11/16 14:02:30;;;;;;;4.42;2.80;;;;;;;11.01;100.00;97909.39;4171559;84;28580;-76
2022/11/16 14:08:37;;;;;;;4.95;2.58;;;;;;;11.06;100.00;97906.47;4147607;83;28585;-75
2022/11/16 14:15:15;;;;;;;3.08;2.12;;;;;;;10.61;100.00;97906.75;4161975;83;28543;-75
2022/11/16 14:21:41;;;;;;;3.92;2.80;;;;;;;10.62;100.00;97904.87;4140490;83;29087;-76
2022/11/16 14:27:54;;;;;;;4.53;2.55;;;;;;;10.48;100.00;97903.17;4084923;84;28587;-75
2022/11/16 14:33:59;;;;;;;4.97;2.52;;;;;;;10.78;100.00;97896.38;4082739;85;28556;-76
2022/11/16 14:40:15;;;;;;;3.83;2.40;;;;;;;10.40;100.00;97911.16;4087137;84;28594;-76
2022/11/16 14:46:26;;;;;;;4.78;2.55;;;;;;;10.74;100.00;97907.66;4110909;85;28555;-76
2022/11/16 14:52:39;;;;;;;4.28;2.65;;;;;;;10.39;100.00;97904.96;4108392;85;28529;-76
2022/11/16 14:59:04;;;;;;;3.45;2.35;;;;;;;10.58;100.00;97902.72;4018421;86;28573;-76
2022/11/16 15:05:04;;;;;;;4.47;2.47;;;;;;;10.16;100.00;97900.23;4087604;84;28594;-84
2022/11/16 15:11:23;;;;;;;3.52;2.60;;;;;;;10.55;100.00;97901.88;4150465;84;28545;-85
2022/11/16 15:17:32;;;;;;;4.58;2.85;;;;;;;10.11;100.00;97900.20;4117972;84;28620;-83
2022/11/16 15:23:41;;;;;;;5.28;2.85;;;;;;;10.35;100.00;97887.75;4136452;84;28569;-85
2022/11/16 15:29:50;;;;;;;5.25;3.25;;;;;;;10.32;100.00;97885.03;4158163;83;28498;-85
2022/11/16 15:35:57;;;;;;;4.65;2.77;;;;;;;10.67;100.00;97881.53;4222611;83;28613;-82
2022/11/16 15:42:02;;;;;;;5.60;3.30;;;;;;;10.33;100.00;97893.92;4216784;83;28466;-83
2022/11/16 15:48:12;;;;;;;4.22;2.92;;;;;;;9.90;100.00;97895.17;4149513;84;28494;-83
2022/11/16 15:55:02;;;;;;;4.50;2.77;;;;;;;10.28;100.00;97880.44;4229111;83;28541;-84
2022/11/16 16:00:36;;;;;;;3.90;2.90;;;;;;;9.90;100.00;97881.75;4177532;82;28586;-83
2022/11/16 16:06:53;;;;;;;4.60;2.60;;;;;;;9.83;100.00;97880.62;4250067;82;47226;-86
2022/11/16 16:12:58;;;;;;;4.75;2.50;;;;;;;10.20;100.00;97880.38;4263412;82;28537;-87
2022/11/16 16:19:05;;;;;;;4.85;2.72;;;;;;;10.23;100.00;97879.06;4267995;82;28530;-87
2022/11/16 16:25:32;;;;;;;3.15;2.70;;;;;;;9.78;100.00;97891.84;4264874;82;28515;-83
2022/11/16 16:31:33;;;;;;;4.42;2.50;;;;;;;10.14;100.00;97884.09;4260581;82;28485;-87
2022/11/16 16:37:37;;;;;;;4.25;2.72;;;;;;;10.23;100.00;97886.58;4248415;82;28526;-84
2022/11/16 16:43:38;;;;;;;3.90;2.60;;;;;;;9.86;100.00;97892.73;4164571;83;28507;-83
2022/11/16 16:49:39;;;;;;;4.12;2.90;;;;;;;10.15;100.00;97889.73;4174814;83;28478;-84
2022/11/16 16:56:28;;;;;;;;;;;;;;;;;;;;;
2022/11/16 17:02:32;;;;;;;3.33;2.37;;;;;;;10.47;100.00;97883.57;4155455;83;28559;-85
2022/11/16 17:08:35;;;;;;;2.60;2.10;;;;;;;10.02;100.00;97883.73;4173236;83;28539;-84
2022/11/16 17:14:37;;;;;;;3.00;1.82;;;;;;;9.28;100.00;97885.98;4138985;84;28500;-80
2022/11/16 17:20:40;;;;;;;2.55;1.72;;;;;;;9.54;100.00;97888.13;4174678;84;28462;-85
2022/11/16 17:26:46;;;;;;;3.62;2.25;;;;;;;9.81;100.00;97889.98;4153751;85;28533;-88
2022/11/16 17:32:45;;;;;;;5.10;2.70;;;;;;;9.74;100.00;97888.85;4163591;84;28494;-86
2022/11/16 17:38:46;;;;;;;6.17;3.85;;;;;;;9.65;100.00;97893.88;4167214;85;28485;-84
2022/11/16 17:44:48;;;;;;;6.65;4.10;;;;;;;10.07;100.00;97886.98;4151875;84;28485;-88
2022/11/16 17:50:50;;;;;;;5.10;3.35;;;;;;;9.41;100.00;97899.52;4141341;84;28481;-84
2022/11/16 17:56:51;;;;;;;4.35;2.65;;;;;;;9.57;100.00;97903.17;4155818;84;28495;-81
2022/11/16 18:02:54;;;;;;;5.50;2.47;;;;;;;9.59;100.00;97902.92;4125727;84;28595;-87
2022/11/16 18:09:05;;;;;;;4.53;2.20;;;;;;;9.46;100.00;97898.76;4130483;85;28508;-90
2022/11/16 18:15:08;;;;;;;3.55;2.30;;;;;;;9.37;100.00;97898.41;4117102;84;28513;-85
2022/11/16 18:21:10;;;;;;;2.62;2.20;;;;;;;8.81;100.00;97909.24;4110369;84;28618;-81
2022/11/16 18:27:14;;;;;;;4.03;2.37;;;;;;;8.88;100.00;97904.52;4104259;84;28501;-78
2022/11/16 18:33:15;;;;;;;4.33;2.60;;;;;;;8.76;100.00;97905.45;4117410;84;28553;-88
2022/11/16 18:39:17;;;;;;;4.00;3.02;;;;;;;9.02;100.00;97911.13;4092869;84;28513;-88
2022/11/16 18:45:21;;;;;;;4.20;2.42;;;;;;;8.64;100.00;97913.58;4104140;84;28541;-86
2022/11/16 18:51:25;;;;;;;4.28;2.60;;;;;;;8.64;100.00;97906.05;4131473;84;28508;-84
2022/11/16 18:57:29;;;;;;;4.92;3.17;;;;;;;8.50;100.00;97902.91;4108199;84;28501;-81
2022/11/16 19:03:33;;;;;;;3.62;2.30;;;;;;;8.32;100.00;97911.47;4105834;85;29128;-86
2022/11/16 19:09:35;;;;;;;4.03;2.80;;;;;;;7.85;100.00;97913.09;4133373;84;28532;-83
2022/11/16 19:15:38;;;;;;;4.65;3.08;;;;;;;8.01;100.00;97910.97;4158155;84;28563;-89
2022/11/16 19:21:40;;;;;;;4.42;2.90;;;;;;;7.87;100.00;97921.72;4156861;84;28555;-87
2022/11/16 19:27:42;;;;;;;6.20;3.40;;;;;;;8.33;100.00;97907.73;4122201;85;28546;-85
2022/11/16 19:33:45;;;;;;;5.40;3.05;;;;;;;8.35;100.00;97918.22;4125291;85;28532;-80
2022/11/16 19:39:48;;;;;;;3.52;2.90;;;;;;;8.02;100.00;97915.78;4114557;85;28488;-76
2022/11/16 19:45:53;;;;;;;4.35;2.95;;;;;;;8.00;100.00;97913.37;4083240;85;28555;-84
2022/11/16 19:51:55;;;;;;;3.35;2.22;;;;;;;8.22;100.00;97909.42;4143402;83;28530;-86
2022/11/16 19:58:05;;;;;;;5.25;3.17;;;;;;;7.65;100.00;97909.00;4094697;85;28534;-77
2022/11/16 20:04:06;;;;;;;5.37;3.05;;;;;;;7.57;100.00;97914.75;4102222;85;28551;-78
2022/11/16 20:10:11;;;;;;;3.67;2.22;;;;;;;7.85;100.00;97908.56;4093370;85;28510;-80
2022/11/16 20:16:17;;;;;;;5.30;2.60;;;;;;;7.66;100.00;97918.67;4087758;85;28550;-77
2022/11/16 20:22:18;;;;;;;4.10;2.60;;;;;;;7.66;100.00;97918.67;4161551;84;28543;-76
2022/11/16 20:28:22;;;;;;;3.72;2.33;;;;;;;7.65;100.00;97928.55;4094158;85;28646;-79
2022/11/16 20:34:23;;;;;;;5.10;2.92;;;;;;;7.33;100.00;97929.53;4140919;83;28553;-77
2022/11/16 20:40:24;;;;;;;4.30;2.27;;;;;;;7.50;100.00;97927.73;4105049;85;28514;-77
2022/11/16 20:46:31;;;;;;;5.10;3.25;;;;;;;7.15;100.00;97935.86;4128028;85;28510;-77
2022/11/16 20:52:35;;;;;;;4.08;2.40;;;;;;;7.53;100.00;97928.58;4150053;85;28509;-78
2022/11/16 20:58:38;;;;;;;5.12;3.05;;;;;;;6.72;100.00;97931.20;4122015;85;28535;-85
2022/11/16 21:04:39;;;;;;;3.67;2.37;;;;;;;7.63;100.00;97922.63;4122882;85;28536;-77
2022/11/16 21:10:41;;;;;;;3.55;2.45;;;;;;;7.95;100.00;97912.75;4140294;83;28521;-81
2022/11/16 21:16:44;;;;;;;5.67;2.52;;;;;;;7.51;100.00;97915.98;4181462;84;29027;-78
2022/11/16 21:22:45;;;;;;;3.80;2.08;;;;;;;7.31;100.00;97919.59;4169173;84;28561;-79
2022/11/16 21:28:47;;;;;;;4.65;1.80;;;;;;;7.11;100.00;97920.30;4173966;83;28494;-79
2022/11/16 21:34:49;;;;;;;4.00;2.20;;;;;;;7.20;100.00;97915.92;4156287;83;28537;-79
2022/11/16 21:40:53;;;;;;;3.98;2.22;;;;;;;7.20;100.00;97916.72;4097481;84;28564;-80
2022/11/16 21:46:55;;;;;;;3.40;2.33;;;;;;;7.27;100.00;97906.43;4160629;84;28482;-79
2022/11/16 21:52:59;;;;;;;3.87;2.20;;;;;;;7.35;100.00;97901.51;4149028;84;28489;-80
2022/11/16 21:59:00;;;;;;;3.22;1.80;;;;;;;6.84;100.00;97903.43;4179113;84;28534;-80
2022/11/16 22:11:22;;;;;;;3.62;2.40;;;;;;;6.89;100.00;97920.63;4177331;84;28528;-83
2022/11/16 22:17:24;;;;;;;2.70;2.02;;;;;;;6.87;100.00;97924.04;4189066;83;28537;-82
2022/11/16 22:23:28;;;;;;;3.72;2.10;;;;;;;7.56;100.00;97918.48;4195651;82;28526;-83
2022/11/16 22:29:30;;;;;;;2.70;1.87;;;;;;;7.37;100.00;97913.31;4129399;84;28542;-82
2022/11/16 22:35:31;;;;;;;3.33;2.10;;;;;;;7.54;100.00;97907.47;4149261;84;28508;-82
2022/11/16 22:41:32;;;;;;;2.05;1.50;;;;;;;7.00;100.00;97903.77;4145873;84;28592;-81
2022/11/16 22:47:34;;;;;;;3.08;2.05;;;;;;;6.91;100.00;97920.66;4134022;85;28514;-80
2022/11/16 22:59:56;;;;;;;2.55;1.32;;;;;;;7.21;100.00;97912.20;4120075;84;28536;-83
2022/11/16 23:05:59;;;;;;;2.35;1.60;;;;;;;6.59;100.00;97921.58;4126689;84;28607;-83
2022/11/16 23:18:23;;;;;;;1.90;1.40;;;;;;;6.66;100.00;97920.41;4164385;83;28512;-82
2022/11/16 23:30:44;;;;;;;1.60;1.10;;;;;;;6.74;100.00;97900.54;4104860;85;28530;-82
2022/11/16 23:36:45;;;;;;;2.90;1.75;;;;;;;6.63;100.00;97901.36;4114984;85;28490;-81
2022/11/16 23:49:07;;;;;;;5.87;2.37;;;;;;;6.62;100.00;97885.05;4109716;85;28590;-80
2022/11/16 23:55:08;;;;;;;4.55;2.62;;;;;;;6.61;100.00;97882.09;4194653;83;28485;-81
